Time;durP1;ratioP1;P1;durP2;ratioP2;P2;SDS_P1;SDS_P2;PMS_P1;PMS_P2;Temp;Humidity;BMP_temperature;BMP_pressure;BME280_temperature;BME280_humidity;BME280_pressure;Samples;Min_cycle;Max_cycle;Signal;HPM_P1;HPM_P2
2022/07/12 00:02:17;;;;;;;3.73;3.53;;;;;;;18.99;100.00;150810.16;5091711;28;20188;-57
2022/07/12 00:04:44;;;;;;;16.47;3.70;;;;;;;18.89;100.00;150784.72;5092380;28;20544;-57
2022/07/12 00:07:11;;;;;;;4.80;3.37;;;;;;;18.97;100.00;150805.06;5090803;28;20690;-58
2022/07/12 00:09:38;;;;;;;4.10;3.47;;;;;;;18.99;100.00;150810.16;5091503;28;20318;-57
2022/07/12 00:12:05;;;;;;;6.30;3.93;;;;;;;18.97;100.00;150806.34;5091543;28;20191;-57
2022/07/12 00:14:32;;;;;;;5.23;3.07;;;;;;;18.88;100.00;150783.47;5091986;28;20223;-57
2022/07/12 00:17:02;;;;;;;4.33;3.77;;;;;;;18.92;100.00;150792.38;5091818;28;20278;-57
2022/07/12 00:19:29;;;;;;;3.50;2.80;;;;;;;18.80;100.00;150763.09;5091555;28;20214;-57
2022/07/12 00:21:56;;;;;;;4.23;2.87;;;;;;;18.75;100.00;150750.41;5091485;28;20192;-57
2022/07/12 00:24:23;;;;;;;7.07;3.30;;;;;;;18.78;100.00;150756.75;5091443;28;20184;-57
2022/07/12 00:26:51;;;;;;;7.20;3.83;;;;;;;18.83;100.00;150769.47;5091674;28;20660;-57
2022/07/12 00:29:18;;;;;;;3.40;3.20;;;;;;;18.56;100.00;150702.03;5091777;28;20546;-57
2022/07/12 00:31:45;;;;;;;3.57;3.37;;;;;;;18.69;100.00;150736.41;5091540;28;20213;-56
2022/07/12 00:34:14;;;;;;;4.47;3.80;;;;;;;18.47;100.00;150680.38;5091333;28;20184;-56
2022/07/12 00:36:41;;;;;;;4.30;4.00;;;;;;;18.69;100.00;150736.41;5091420;28;20184;-57
2022/07/12 00:39:08;;;;;;;5.40;4.43;;;;;;;18.59;100.00;150709.66;5091316;28;20283;-57
2022/07/12 00:41:35;;;;;;;7.53;3.80;;;;;;;18.67;100.00;150731.28;5092043;28;20219;-56
2022/07/12 00:44:02;;;;;;;5.20;4.80;;;;;;;18.68;100.00;150733.84;5091308;28;20198;-57
2022/07/12 00:46:29;;;;;;;5.03;4.63;;;;;;;18.76;100.00;150751.63;5090166;28;20194;-57
2022/07/12 00:48:56;;;;;;;6.00;5.30;;;;;;;18.79;100.00;150759.28;5091239;28;20184;-57
2022/07/12 00:51:25;;;;;;;11.63;5.37;;;;;;;18.79;100.00;150759.28;5091284;28;20188;-57
2022/07/12 00:53:53;;;;;;;8.33;4.57;;;;;;;18.73;100.00;150745.28;5094072;28;20188;-57
2022/07/12 00:56:21;;;;;;;4.63;4.27;;;;;;;18.83;100.00;150769.47;5095096;28;20208;-58
2022/07/12 00:58:48;;;;;;;4.23;3.90;;;;;;;18.74;100.00;150747.84;5095145;28;20184;-57
2022/07/12 01:01:15;;;;;;;5.70;4.33;;;;;;;18.71;100.00;150741.47;5095070;28;20547;-57
2022/07/12 01:03:43;;;;;;;4.20;3.90;;;;;;;18.56;100.00;150702.03;5095739;28;20180;-58
2022/07/12 01:06:11;;;;;;;3.93;3.70;;;;;;;18.81;100.00;150764.34;5095380;28;20183;-58
2022/07/12 01:08:40;;;;;;;3.43;3.23;;;;;;;18.84;100.00;150772.03;5095381;28;20279;-58
2022/07/12 01:11:07;;;;;;;3.33;3.00;;;;;;;18.87;100.00;150779.63;5094765;28;20300;-57
2022/07/12 01:13:36;;;;;;;3.40;3.23;;;;;;;18.80;100.00;150763.09;5094890;28;20215;-57
2022/07/12 01:16:03;;;;;;;3.20;3.10;;;;;;;19.01;100.00;150816.50;5095472;28;20299;-57
2022/07/12 01:18:30;;;;;;;3.43;3.10;;;;;;;18.97;100.00;150806.34;5094700;28;20189;-56
2022/07/12 01:20:57;;;;;;;6.43;3.43;;;;;;;18.96;100.00;150802.56;5094714;28;20274;-57
2022/07/12 01:23:26;;;;;;;3.73;3.57;;;;;;;18.86;100.00;150777.09;5094663;28;20188;-57
2022/07/12 01:25:53;;;;;;;6.93;5.13;;;;;;;19.01;100.00;150816.50;5094919;28;20570;-57
2022/07/12 01:28:20;;;;;;;4.30;3.90;;;;;;;19.18;100.00;150859.75;5094562;28;20263;-57
2022/07/12 01:30:47;;;;;;;4.23;4.03;;;;;;;19.26;100.00;150878.88;5094835;28;20199;-57
2022/07/12 01:33:15;;;;;;;4.40;3.40;;;;;;;19.18;100.00;150858.50;5094442;28;20188;-57
2022/07/12 01:35:45;;;;;;;3.70;3.47;;;;;;;19.20;100.00;150863.59;5094628;28;20226;-57
2022/07/12 01:38:12;;;;;;;6.23;3.43;;;;;;;19.14;100.00;150849.59;5094658;28;20184;-58
2022/07/12 01:40:40;;;;;;;6.10;3.30;;;;;;;18.75;100.00;150750.41;5094641;28;20646;-56
2022/07/12 01:43:07;;;;;;;5.40;3.40;;;;;;;18.88;100.00;150782.19;5094556;28;20179;-56
2022/07/12 01:45:34;;;;;;;10.43;4.00;;;;;;;18.97;100.00;150806.34;5094435;28;20550;-57
2022/07/12 01:48:01;;;;;;;6.33;3.93;;;;;;;18.92;100.00;150792.38;5094451;28;20733;-58
2022/07/12 01:50:28;;;;;;;5.27;3.67;;;;;;;19.00;100.00;150814.00;5094217;28;20213;-58
2022/07/12 01:52:56;;;;;;;4.00;3.70;;;;;;;18.91;100.00;150791.09;5094353;28;20580;-57
2022/07/12 01:55:23;;;;;;;4.53;3.63;;;;;;;19.04;100.00;150822.91;5094273;28;20682;-58
2022/07/12 01:57:52;;;;;;;4.37;3.87;;;;;;;18.89;100.00;150784.72;5092820;28;20192;-58
2022/07/12 02:00:20;;;;;;;6.70;4.17;;;;;;;19.17;100.00;150855.97;5094192;28;20194;-57
2022/07/12 02:02:48;;;;;;;10.67;4.33;;;;;;;19.18;100.00;150859.75;5093860;28;20245;-57
2022/07/12 02:05:15;;;;;;;6.47;4.03;;;;;;;19.24;100.00;150873.78;5093496;28;20185;-56
2022/07/12 02:07:42;;;;;;;9.03;4.50;;;;;;;19.21;100.00;150866.16;5093724;28;20194;-57
2022/07/12 02:10:10;;;;;;;6.53;4.40;;;;;;;19.17;100.00;150857.25;5093958;28;20234;-57
2022/07/12 02:12:37;;;;;;;6.03;5.60;;;;;;;19.25;100.00;150876.34;5093662;28;20191;-58
2022/07/12 02:15:07;;;;;;;10.20;5.50;;;;;;;19.20;100.00;150862.31;5093674;28;20749;-57
2022/07/12 02:17:34;;;;;;;7.83;4.70;;;;;;;19.26;100.00;150878.88;5094337;28;20187;-57
2022/07/12 02:20:02;;;;;;;8.07;4.93;;;;;;;19.28;100.00;150883.97;5093784;28;20317;-57
2022/07/12 02:22:29;;;;;;;9.33;5.10;;;;;;;19.23;100.00;150871.22;5093447;28;20191;-57
2022/07/12 02:24:56;;;;;;;5.90;5.13;;;;;;;19.28;100.00;150882.69;5093747;28;20690;-57
2022/07/12 02:27:23;;;;;;;5.03;4.57;;;;;;;19.28;100.00;150882.69;5093387;28;20184;-58
2022/07/12 02:29:50;;;;;;;5.23;4.80;;;;;;;19.28;100.00;150882.69;5094098;28;20188;-58
2022/07/12 02:32:18;;;;;;;7.93;4.30;;;;;;;19.27;100.00;150880.13;5093851;28;20263;-57
2022/07/12 02:34:45;;;;;;;10.80;5.00;;;;;;;19.09;100.00;150835.63;5093252;28;20194;-56
2022/07/12 02:37:12;;;;;;;8.07;5.27;;;;;;;18.95;100.00;150800.00;5093446;28;20649;-57
2022/07/12 02:39:39;;;;;;;6.20;5.50;;;;;;;18.99;100.00;150810.16;5093113;28;20184;-57
2022/07/12 02:42:06;;;;;;;6.20;5.07;;;;;;;19.04;100.00;150824.19;5093086;28;20271;-57
2022/07/12 02:44:33;;;;;;;5.67;5.13;;;;;;;18.89;100.00;150784.72;5093389;28;20610;-57
2022/07/12 02:47:01;;;;;;;7.37;5.70;;;;;;;18.85;100.00;150774.53;5093036;28;20184;-57
2022/07/12 02:49:29;;;;;;;7.63;5.50;;;;;;;18.83;100.00;150769.47;5093315;28;20192;-57
2022/07/12 02:51:56;;;;;;;18.53;5.70;;;;;;;18.88;100.00;150782.19;5093230;28;20211;-57
2022/07/12 02:54:23;;;;;;;10.80;5.40;;;;;;;18.86;100.00;150777.09;5092950;28;20216;-57
2022/07/12 02:56:50;;;;;;;13.13;5.00;;;;;;;18.95;100.00;150800.00;5092737;28;20215;-57
2022/07/12 02:59:17;;;;;;;7.30;4.47;;;;;;;19.04;100.00;150824.19;5093615;28;20180;-58
2022/07/12 03:01:44;;;;;;;10.67;5.20;;;;;;;19.08;100.00;150834.34;5093058;28;20279;-57
2022/07/12 03:04:11;;;;;;;7.67;4.97;;;;;;;19.10;100.00;150838.13;5092771;28;20195;-57
2022/07/12 03:06:39;;;;;;;10.77;5.33;;;;;;;19.17;100.00;150857.25;5093005;28;20184;-57
2022/07/12 03:09:06;;;;;;;6.27;4.77;;;;;;;19.26;100.00;150878.88;5093519;28;20354;-57
2022/07/12 03:11:33;;;;;;;6.00;5.10;;;;;;;19.32;100.00;150894.13;5093048;28;20783;-57
2022/07/12 03:14:00;;;;;;;11.17;5.70;;;;;;;19.24;100.00;150872.50;5093420;28;20286;-57
2022/07/12 03:16:27;;;;;;;6.20;4.20;;;;;;;19.38;100.00;150909.44;5092530;28;20211;-58
2022/07/12 03:18:54;;;;;;;4.80;3.90;;;;;;;19.50;100.00;150938.72;5092379;28;20180;-57
2022/07/12 03:21:21;;;;;;;3.83;3.60;;;;;;;19.34;100.00;150899.25;5092423;28;20279;-58
2022/07/12 03:23:50;;;;;;;4.87;3.40;;;;;;;19.63;100.00;150970.53;5092388;28;20192;-57
2022/07/12 03:26:17;;;;;;;6.70;3.40;;;;;;;19.74;100.00;150998.53;5091110;28;20180;-58
2022/07/12 03:28:44;;;;;;;8.27;3.87;;;;;;;19.82;100.00;151020.16;5092353;28;20194;-58
2022/07/12 03:31:11;;;;;;;5.83;3.20;;;;;;;19.65;100.00;150975.66;5093217;28;20192;-58
2022/07/12 03:33:38;;;;;;;3.00;2.73;;;;;;;19.84;100.00;151025.28;5092390;28;20536;-57
2022/07/12 03:36:08;;;;;;;3.67;3.37;;;;;;;19.86;100.00;151030.34;5092042;28;20234;-57
2022/07/12 03:38:36;;;;;;;3.60;3.35;;;;;;;19.92;100.00;151044.38;5092368;28;20227;-57
2022/07/12 03:41:05;;;;;;;3.87;2.87;;;;;;;19.91;100.00;151043.09;5091038;28;20729;-57
2022/07/12 03:43:32;;;;;;;3.70;2.50;;;;;;;19.92;100.00;151045.66;5092297;28;20565;-57
2022/07/12 03:45:59;;;;;;;3.00;2.80;;;;;;;19.95;100.00;151052.00;5092075;28;20181;-58
2022/07/12 03:48:26;;;;;;;2.70;2.50;;;;;;;20.11;100.00;151092.78;5092238;28;20188;-58
2022/07/12 03:50:53;;;;;;;4.47;2.60;;;;;;;20.13;100.00;151097.84;5092713;28;20275;-57
2022/07/12 03:53:20;;;;;;;2.87;2.77;;;;;;;20.14;100.00;151099.13;5091881;28;20180;-61
2022/07/12 03:55:47;;;;;;;6.82;2.80;;;;;;;20.17;100.00;151108.03;5091913;28;20204;-58
2022/07/12 03:58:16;;;;;;;6.57;2.30;;;;;;;20.08;100.00;151086.38;5091749;28;20302;-59
2022/07/12 04:00:43;;;;;;;4.10;2.30;;;;;;;20.21;100.00;151116.94;5092068;28;20715;-59
2022/07/12 04:03:11;;;;;;;2.93;1.90;;;;;;;20.05;100.00;151078.75;5091665;28;20240;-58
2022/07/12 04:05:38;;;;;;;2.33;1.97;;;;;;;20.20;100.00;151115.66;5091619;28;20184;-58
2022/07/12 04:08:06;;;;;;;2.37;1.97;;;;;;;20.25;100.00;151128.38;5092078;28;20652;-58
2022/07/12 04:10:33;;;;;;;2.90;2.00;;;;;;;20.52;100.00;151197.22;5091615;28;20331;-58
2022/07/12 04:13:00;;;;;;;2.75;2.15;;;;;;;20.70;100.00;151240.53;5091949;28;20275;-59
2022/07/12 04:15:28;;;;;;;6.53;2.00;;;;;;;20.84;100.00;151276.16;5091528;28;20276;-58
2022/07/12 04:17:55;;;;;;;3.43;1.97;;;;;;;21.07;100.00;151334.78;5092155;28;20184;-58
2022/07/12 04:20:22;;;;;;;6.53;2.10;;;;;;;21.21;100.00;151370.53;5091456;28;20196;-58
2022/07/12 04:22:49;;;;;;;4.43;2.13;;;;;;;21.30;100.00;151392.19;5091759;28;20645;-58
2022/07/12 04:25:16;;;;;;;2.35;2.17;;;;;;;21.41;100.00;151421.50;5091681;28;20187;-57
2022/07/12 04:27:43;;;;;;;4.07;1.73;;;;;;;21.55;100.00;151455.91;5094431;28;20187;-58
2022/07/12 04:30:10;;;;;;;1.92;1.80;;;;;;;21.56;100.00;151457.13;5095611;28;20194;-57
2022/07/12 04:32:39;;;;;;;2.88;2.20;;;;;;;21.73;100.00;151500.47;5095852;28;20206;-56
2022/07/12 04:35:07;;;;;;;4.13;1.70;;;;;;;21.89;98.18;151541.31;5095772;28;20586;-57
2022/07/12 04:37:34;;;;;;;4.47;1.92;;;;;;;22.08;95.14;151588.50;5095375;28;20234;-57
2022/07/12 04:40:01;;;;;;;6.15;1.90;;;;;;;22.16;93.11;151608.88;5095694;28;20271;-57
2022/07/12 04:42:28;;;;;;;3.95;1.73;;;;;;;22.57;90.81;151713.50;5095722;28;20188;-57
2022/07/12 04:44:55;;;;;;;6.78;2.08;;;;;;;22.73;86.08;151753.06;5095635;28;20649;-57
2022/07/12 04:47:22;;;;;;;2.08;1.60;;;;;;;22.85;84.23;151783.66;5095119;28;20180;-57
2022/07/12 04:49:51;;;;;;;2.63;1.60;;;;;;;23.10;81.15;151847.44;5095568;28;20549;-56
2022/07/12 04:52:17;;;;;;;6.40;2.00;;;;;;;23.26;80.62;151885.72;5095092;28;20234;-56
2022/07/12 04:54:44;;;;;;;5.60;2.38;;;;;;;23.35;77.88;151909.97;5095326;28;20271;-57
2022/07/12 04:57:11;;;;;;;8.25;2.55;;;;;;;23.19;75.84;151869.13;5095303;28;20207;-56
2022/07/12 04:59:38;;;;;;;4.93;1.50;;;;;;;23.49;72.90;151945.75;5095083;28;20279;-57
2022/07/12 05:02:05;;;;;;;4.70;1.17;;;;;;;23.59;71.69;151971.25;5095441;28;20657;-57
2022/07/12 05:04:34;;;;;;;5.10;1.83;;;;;;;23.74;70.99;152008.28;5095014;28;20179;-57
2022/07/12 05:07:02;;;;;;;1.52;1.40;;;;;;;23.80;69.70;152022.34;5095088;28;20188;-56
2022/07/12 05:09:29;;;;;;;4.28;1.40;;;;;;;23.61;68.85;151976.38;5094779;28;20287;-57
2022/07/12 05:11:56;;;;;;;3.22;1.50;;;;;;;23.71;69.45;151999.38;5094430;28;20192;-57
2022/07/12 05:14:23;;;;;;;3.42;1.38;;;;;;;23.70;70.05;151998.09;5094485;28;20241;-58
2022/07/12 05:16:51;;;;;;;4.22;1.65;;;;;;;23.70;69.76;151998.09;5094624;28;20295;-57
2022/07/12 05:19:18;;;;;;;1.10;1.10;;;;;;;23.78;70.29;152017.22;5094330;28;20183;-56
2022/07/12 05:21:45;;;;;;;1.98;1.88;;;;;;;23.75;68.94;152009.56;5094476;28;20282;-57
2022/07/12 05:24:14;;;;;;;2.95;1.40;;;;;;;23.86;69.50;152038.91;5094447;28;20190;-57
2022/07/12 05:26:41;;;;;;;1.80;1.38;;;;;;;24.08;68.92;152095.09;5094632;28;20275;-57
2022/07/12 05:29:08;;;;;;;2.30;1.65;;;;;;;24.49;67.39;152197.25;5094897;28;20294;-57
2022/07/12 05:31:38;;;;;;;2.70;1.63;;;;;;;24.56;67.20;152215.19;5094320;28;20188;-57
2022/07/12 05:34:05;;;;;;;4.05;1.20;;;;;;;24.64;65.98;152234.31;5094285;28;20715;-57
2022/07/12 05:36:32;;;;;;;2.28;1.20;;;;;;;24.84;63.75;152285.41;5094562;28;20649;-57
2022/07/12 05:38:59;;;;;;;3.15;1.75;;;;;;;24.98;64.35;152322.50;5093490;28;20190;-57
2022/07/12 05:41:28;;;;;;;5.55;1.30;;;;;;;25.02;62.71;152332.72;5094455;28;20238;-57
2022/07/12 05:43:55;;;;;;;1.60;1.50;;;;;;;24.85;62.53;152289.31;5094095;28;20184;-57
2022/07/12 05:46:22;;;;;;;1.20;1.20;;;;;;;24.74;61.44;152259.88;5094024;28;20275;-57
2022/07/12 05:48:49;;;;;;;1.58;1.30;;;;;;;25.02;61.35;152332.72;5093884;28;20195;-58
2022/07/12 05:54:00;;;;;;;2.17;1.70;;;;;;;25.43;60.51;152436.19;5093820;28;20180;-57
2022/07/12 05:56:29;;;;;;;10.23;2.38;;;;;;;25.50;60.20;152451.56;5093661;28;20281;-58
2022/07/12 05:58:55;;;;;;;5.22;1.90;;;;;;;25.60;59.22;152478.41;5093896;28;20231;-58
2022/07/12 06:01:22;;;;;;;11.75;2.65;;;;;;;25.72;59.04;152509.09;5093629;28;20263;-58
2022/07/12 06:03:52;;;;;;;4.72;1.70;;;;;;;26.07;57.50;152597.28;5093431;28;20216;-58
2022/07/12 06:06:19;;;;;;;1.92;1.20;;;;;;;26.22;56.74;152635.72;5093471;28;20180;-57
2022/07/12 06:08:46;;;;;;;6.45;2.25;;;;;;;26.36;56.82;152670.19;5093673;28;20677;-57
2022/07/12 06:11:13;;;;;;;3.47;2.20;;;;;;;26.38;56.88;152675.34;5093359;28;20231;-57
2022/07/12 06:13:41;;;;;;;3.67;1.45;;;;;;;26.70;54.84;152757.16;5093350;28;20184;-58
2022/07/12 06:16:10;;;;;;;7.68;1.80;;;;;;;26.82;54.67;152786.56;5093235;28;20192;-58
2022/07/12 06:18:37;;;;;;;2.85;1.38;;;;;;;26.82;53.60;152787.84;5093513;28;20607;-57
2022/07/12 06:21:04;;;;;;;2.05;1.27;;;;;;;27.30;52.69;152906.84;5093276;28;20187;-57
2022/07/12 06:23:31;;;;;;;4.03;1.58;;;;;;;27.68;51.90;153005.44;5089119;28;20276;-57
2022/07/12 06:25:58;;;;;;;3.30;1.70;;;;;;;27.95;51.13;153071.97;5083024;28;20210;-58
2022/07/12 06:28:25;;;;;;;3.92;1.35;;;;;;;27.58;51.04;152979.81;5072794;28;20235;-58
2022/07/12 06:30:54;;;;;;;2.13;1.98;;;;;;;27.55;51.34;152972.16;5072853;28;20224;-57
2022/07/12 06:33:21;;;;;;;4.70;1.65;;;;;;;28.02;50.58;153091.16;5086926;28;20210;-58
2022/07/12 06:35:48;;;;;;;7.07;1.80;;;;;;;28.57;48.56;153230.75;5093052;28;20184;-57
2022/07/12 06:38:18;;;;;;;3.30;1.27;;;;;;;28.55;48.24;153225.66;5092578;28;20201;-58
2022/07/12 06:40:47;;;;;;;3.88;1.50;;;;;;;28.60;47.50;153238.41;5090933;28;20298;-57
2022/07/12 06:43:14;;;;;;;2.17;1.98;;;;;;;28.60;47.93;153238.41;5073423;28;20199;-57
2022/07/12 06:45:41;;;;;;;4.93;1.48;;;;;;;28.66;48.06;153252.50;5073061;28;20273;-58
2022/07/12 06:48:10;;;;;;;3.25;1.40;;;;;;;28.86;46.66;153302.50;5089941;28;20199;-57
2022/07/12 06:50:37;;;;;;;1.58;1.48;;;;;;;29.32;46.48;153420.38;5091718;28;20184;-58
2022/07/12 06:53:04;;;;;;;3.20;1.60;;;;;;;29.39;44.91;153437.03;5093157;28;20212;-58
2022/07/12 06:55:31;;;;;;;4.53;1.15;;;;;;;29.87;44.08;153560.06;5092799;28;20271;-58
2022/07/12 06:57:58;;;;;;;7.15;1.50;;;;;;;29.41;44.37;153443.44;5087676;28;20213;-57
2022/07/12 07:00:25;;;;;;;2.67;1.23;;;;;;;30.03;43.95;153599.81;5092339;28;20192;-58
2022/07/12 07:02:54;;;;;;;1.63;1.52;;;;;;;29.72;43.41;153521.59;5092438;28;20195;-58
2022/07/12 07:05:23;;;;;;;3.35;1.33;;;;;;;29.21;44.37;153392.16;5092772;28;20654;-57
2022/07/12 07:07:50;;;;;;;2.33;1.40;;;;;;;28.85;44.74;153301.25;5092611;28;20180;-58
2022/07/12 07:10:17;;;;;;;6.13;1.65;;;;;;;28.58;45.52;153233.31;5091937;28;20290;-57
2022/07/12 07:12:44;;;;;;;2.65;1.30;;;;;;;28.44;46.08;153196.16;5078568;28;20200;-58
2022/07/12 07:15:15;;;;;;;3.45;1.50;;;;;;;28.54;45.83;153221.78;5076296;28;20296;-58
2022/07/12 07:17:42;;;;;;;3.47;1.25;;;;;;;28.41;45.99;153189.78;5087633;28;20215;-57
2022/07/12 07:20:10;;;;;;;1.40;1.30;;;;;;;28.59;44.32;153235.91;5092185;28;20188;-59
2022/07/12 07:22:39;;;;;;;1.20;1.20;;;;;;;28.20;44.98;153136.03;5092166;28;20188;-58
2022/07/12 07:25:07;;;;;;;2.53;1.27;;;;;;;28.49;46.75;153210.25;5092124;28;20199;-58
2022/07/12 07:27:34;;;;;;;10.13;1.55;;;;;;;28.31;45.92;153162.88;5087166;28;20231;-58
2022/07/12 07:32:46;;;;;;;1.85;1.50;;;;;;;28.74;45.95;153271.75;5092353;28;20183;-59
2022/07/12 07:35:13;;;;;;;1.58;1.48;;;;;;;28.77;45.68;153280.72;5091843;28;20188;-58
2022/07/12 07:37:41;;;;;;;1.38;1.23;;;;;;;28.85;45.99;153299.97;5076936;28;20216;-58
2022/07/12 07:40:10;;;;;;;3.33;1.27;;;;;;;28.86;44.80;153303.78;5091928;28;20195;-58
2022/07/12 07:42:37;;;;;;;4.78;1.60;;;;;;;28.85;45.77;153299.97;5091042;28;20245;-58
2022/07/12 07:45:07;;;;;;;2.60;2.40;;;;;;;29.03;45.49;153346.03;5090264;28;20391;-59
2022/07/12 07:47:44;;;;;;;2.72;2.53;;;;;;;28.86;45.31;153303.78;5091390;28;20282;-59
2022/07/12 07:50:11;;;;;;;3.28;1.63;;;;;;;28.93;44.91;153320.44;5091483;28;20271;-58
2022/07/12 07:52:38;;;;;;;5.05;1.63;;;;;;;29.06;44.67;153353.75;5091468;28;20233;-58
2022/07/12 07:55:07;;;;;;;2.72;2.10;;;;;;;29.16;44.51;153379.34;5089321;28;20200;-58
2022/07/12 07:57:35;;;;;;;1.10;1.10;;;;;;;29.10;44.45;153362.72;5091222;28;20222;-59
2022/07/12 08:00:04;;;;;;;2.28;1.30;;;;;;;28.95;44.89;153325.53;5091384;28;20188;-58
2022/07/12 08:02:31;;;;;;;5.38;1.30;;;;;;;29.13;44.76;153370.38;5091054;28;20260;-58
2022/07/12 08:04:58;;;;;;;1.38;1.20;;;;;;;29.05;43.46;153351.19;5091241;28;20237;-58
2022/07/12 08:07:25;;;;;;;2.17;1.05;;;;;;;29.04;43.25;153349.88;5091755;28;20215;-60
2022/07/12 08:09:52;;;;;;;1.55;1.10;;;;;;;29.02;44.78;153344.78;5091408;28;20232;-58
2022/07/12 08:12:21;;;;;;;6.32;1.15;;;;;;;29.50;43.33;153465.22;5091676;28;20266;-57
2022/07/12 08:14:51;;;;;;;1.00;0.98;;;;;;;29.96;42.74;153581.84;5091355;28;20188;-58
2022/07/12 08:17:18;;;;;;;2.22;1.25;;;;;;;29.81;42.01;153543.38;5091600;28;20291;-58
2022/07/12 08:19:45;;;;;;;1.10;1.10;;;;;;;29.77;41.45;153533.13;5076125;28;20600;-58
2022/07/12 08:22:13;;;;;;;2.42;0.80;;;;;;;29.56;40.68;153479.31;5086462;28;20195;-58
2022/07/12 08:24:40;;;;;;;1.95;1.30;;;;;;;29.30;42.27;153415.25;5091038;28;20558;-59
2022/07/12 08:27:07;;;;;;;1.10;1.00;;;;;;;29.85;42.43;153553.63;5076557;28;20254;-57
2022/07/12 08:29:35;;;;;;;3.38;1.60;;;;;;;29.82;42.77;153545.94;5071139;28;20284;-58
2022/07/12 08:32:02;;;;;;;1.40;1.10;;;;;;;29.90;42.66;153567.78;5071277;28;20188;-59
2022/07/12 08:34:30;;;;;;;3.20;1.15;;;;;;;29.87;41.57;153558.81;5083921;28;20211;-59
2022/07/12 08:36:57;;;;;;;2.00;1.50;;;;;;;29.81;41.49;153543.38;5089894;28;20648;-59
2022/07/12 08:39:24;;;;;;;2.22;1.10;;;;;;;29.72;41.66;153520.28;5091044;28;20183;-59
2022/07/12 08:41:51;;;;;;;4.45;1.25;;;;;;;30.15;41.34;153629.28;5091054;28;20195;-58
2022/07/12 08:44:18;;;;;;;7.07;1.17;;;;;;;30.12;41.42;153621.59;5090521;28;20203;-58
2022/07/12 08:46:48;;;;;;;3.38;1.55;;;;;;;30.35;41.10;153681.81;5090915;28;20194;-58
2022/07/12 08:49:14;;;;;;;1.10;1.00;;;;;;;30.39;39.80;153690.78;5091312;28;20180;-57
2022/07/12 08:51:42;;;;;;;6.18;1.38;;;;;;;30.46;39.87;153707.50;5091355;28;20216;-59
2022/07/12 08:54:10;;;;;;;1.40;1.10;;;;;;;30.58;40.21;153738.28;5090123;28;20195;-57
2022/07/12 08:56:39;;;;;;;2.75;1.30;;;;;;;30.62;40.65;153748.53;5091122;28;20241;-57
2022/07/12 08:59:14;;;;;;;1.00;1.00;;;;;;;30.58;39.77;153738.28;5091274;28;20212;-58
2022/07/12 09:01:49;;;;;;;3.03;1.20;;;;;;;30.72;40.44;153775.41;5091235;28;20184;-57
2022/07/12 09:04:18;;;;;;;3.28;1.33;;;;;;;31.17;40.93;153889.63;5089844;28;20192;-58
2022/07/12 09:06:45;;;;;;;2.70;1.33;;;;;;;31.29;38.87;153920.38;5071025;28;20205;-59
2022/07/12 09:09:12;;;;;;;7.55;1.48;;;;;;;30.83;39.95;153803.66;5073601;28;20197;-58
2022/07/12 09:11:40;;;;;;;1.55;1.35;;;;;;;30.60;40.10;153743.38;5074204;28;20290;-59
2022/07/12 09:14:08;;;;;;;1.50;1.40;;;;;;;30.68;41.12;153765.16;5072142;28;20709;-58
2022/07/12 09:16:35;;;;;;;5.30;1.40;;;;;;;30.55;39.79;153730.59;5079769;28;20200;-58
2022/07/12 09:19:19;;;;;;;3.05;1.35;;;;;;;30.45;40.62;153704.94;5094827;28;20223;-58
2022/07/12 09:21:50;;;;;;;16.70;10.25;;;;;;;30.68;41.90;153765.16;5083434;28;20617;-58
2022/07/12 09:24:18;;;;;;;1.33;1.23;;;;;;;30.67;40.34;153762.66;5092910;28;20709;-58
2022/07/12 09:26:46;;;;;;;3.95;1.27;;;;;;;30.61;39.94;153747.25;5106122;28;20200;-57
2022/07/12 09:29:16;;;;;;;1.52;1.00;;;;;;;30.46;38.70;153707.50;5077582;28;20279;-57
2022/07/12 09:37:12;;;;;;;4.90;1.42;;;;;;;30.84;39.47;153804.94;5094249;28;20233;-57
2022/07/12 09:39:40;;;;;;;6.07;1.30;;;;;;;31.03;40.31;153852.41;5094753;28;20196;-58
2022/07/12 09:42:10;;;;;;;1.02;1.02;;;;;;;31.21;40.09;153898.59;5094187;28;20207;-59
2022/07/12 09:44:37;;;;;;;1.42;1.17;;;;;;;31.81;38.30;154051.28;5093837;28;20188;-58
2022/07/12 09:47:05;;;;;;;2.47;1.35;;;;;;;32.17;36.58;154143.69;5094054;28;20184;-58
2022/07/12 09:49:35;;;;;;;1.15;1.15;;;;;;;32.26;34.78;154165.47;5084119;28;20429;-58
2022/07/12 09:52:05;;;;;;;2.65;1.63;;;;;;;32.57;35.79;154243.78;5081357;28;20579;-59
2022/07/12 09:54:36;;;;;;;1.95;1.42;;;;;;;32.46;34.84;154216.81;5079214;28;20202;-58
2022/07/12 09:57:06;;;;;;;3.88;1.27;;;;;;;32.14;36.07;154135.97;5080400;28;20204;-58
2022/07/12 09:59:37;;;;;;;0.93;0.90;;;;;;;32.42;35.00;154205.31;5073984;28;20215;-58
2022/07/12 10:02:05;;;;;;;1.30;1.20;;;;;;;32.28;35.70;154169.34;5073848;28;20654;-58
2022/07/12 10:04:34;;;;;;;3.25;1.20;;;;;;;32.07;36.61;154118.00;5073989;28;20551;-58
2022/07/12 10:07:02;;;;;;;3.60;1.40;;;;;;;32.26;36.69;154165.47;5073284;28;20192;-57
2022/07/12 10:09:30;;;;;;;1.10;1.10;;;;;;;31.99;37.18;154096.19;5073257;28;20298;-58
2022/07/12 10:11:58;;;;;;;2.22;1.13;;;;;;;31.50;37.29;153972.97;5093464;28;20271;-58
2022/07/12 10:14:27;;;;;;;1.88;1.48;;;;;;;31.38;36.66;153942.19;5094080;28;20746;-58
2022/07/12 10:16:55;;;;;;;3.60;1.38;;;;;;;31.72;37.76;154028.16;5087081;28;20286;-58
2022/07/12 10:19:27;;;;;;;1.27;1.25;;;;;;;31.40;38.01;153947.34;5078755;28;20303;-57
2022/07/12 10:21:57;;;;;;;1.10;1.10;;;;;;;31.43;38.62;153955.03;5076016;28;20353;-58
2022/07/12 10:24:56;;;;;;;1.95;1.48;;;;;;;31.65;37.96;154011.53;5082634;28;20226;-57
2022/07/12 10:27:35;;;;;;;1.48;1.38;;;;;;;31.58;38.01;153992.25;5087510;28;20200;-58
2022/07/12 10:30:25;;;;;;;1.70;1.60;;;;;;;31.10;38.61;153871.69;5093869;28;20226;-57
2022/07/12 10:32:56;;;;;;;1.23;1.20;;;;;;;30.87;39.36;153812.63;5091660;28;20677;-58
2022/07/12 10:35:25;;;;;;;1.15;1.15;;;;;;;30.94;39.38;153830.56;5093427;28;20634;-57
2022/07/12 10:38:21;;;;;;;1.75;1.25;;;;;;;31.43;39.41;153955.03;5092895;28;20211;-58
2022/07/12 10:40:50;;;;;;;4.72;1.75;;;;;;;31.02;39.80;153851.13;5092949;28;20188;-58
2022/07/12 10:46:15;;;;;;;2.25;1.48;;;;;;;30.78;39.30;153789.53;5092574;28;20620;-58
2022/07/12 10:48:42;;;;;;;1.80;1.20;;;;;;;31.07;38.12;153862.66;5092662;28;20267;-57
2022/07/12 10:51:16;;;;;;;4.80;1.67;;;;;;;31.02;38.79;153851.13;5092925;28;20206;-57
2022/07/12 10:53:46;;;;;;;2.83;2.10;;;;;;;30.88;38.83;153813.91;5093118;28;20215;-58
2022/07/12 10:56:22;;;;;;;2.17;1.38;;;;;;;30.75;39.31;153783.16;5093441;28;20196;-58
2022/07/12 10:58:51;;;;;;;1.33;1.33;;;;;;;30.59;38.81;153740.84;5086509;28;20215;-58
2022/07/12 11:01:20;;;;;;;1.48;1.13;;;;;;;30.36;38.90;153683.09;5073302;28;20291;-57
2022/07/12 11:03:49;;;;;;;2.33;1.70;;;;;;;30.54;39.91;153729.31;5072623;28;20227;-58
2022/07/12 11:06:17;;;;;;;1.65;1.55;;;;;;;30.39;40.73;153692.06;5072429;28;20184;-57
2022/07/12 11:08:58;;;;;;;1.42;1.38;;;;;;;30.24;40.54;153653.63;5072490;28;20189;-58
2022/07/12 11:11:28;;;;;;;2.15;1.30;;;;;;;30.19;41.71;153640.81;5072012;28;20644;-57
2022/07/12 11:13:56;;;;;;;15.45;12.13;;;;;;;30.15;42.60;153629.28;5079672;28;20278;-61
2022/07/12 11:16:24;;;;;;;1.73;1.63;;;;;;;29.53;40.80;153472.94;5088831;28;20211;-59
2022/07/12 11:18:52;;;;;;;3.17;1.90;;;;;;;29.60;41.35;153489.56;5074619;28;20221;-57
2022/07/12 11:21:19;;;;;;;1.63;1.50;;;;;;;29.36;42.29;153429.38;5071886;28;20189;-57
2022/07/12 11:23:46;;;;;;;1.90;1.80;;;;;;;29.28;43.26;153410.06;5072381;28;20588;-58
2022/07/12 11:26:15;;;;;;;1.92;1.83;;;;;;;29.33;44.13;153422.94;5082010;28;20199;-58
2022/07/12 11:28:44;;;;;;;2.85;2.08;;;;;;;29.22;43.93;153394.72;5092079;28;20187;-58
2022/07/12 11:31:24;;;;;;;1.88;1.77;;;;;;;29.23;44.25;153397.28;5091948;28;20195;-57
2022/07/12 11:33:52;;;;;;;2.65;1.92;;;;;;;29.29;46.10;153412.69;5091896;28;20184;-58
2022/07/12 11:36:20;;;;;;;2.15;2.05;;;;;;;29.38;47.57;153434.47;5091380;28;20184;-58
2022/07/12 11:38:48;;;;;;;1.88;1.77;;;;;;;29.35;48.67;153428.09;5092142;28;20230;-59
2022/07/12 11:41:16;;;;;;;1.88;1.83;;;;;;;29.22;48.15;153394.72;5092189;28;20591;-58